sensor_id;sensor_type;location;lat;lon;timestamp;P1;durP1;ratioP1;P2;durP2;ratioP2
2438;SDS011;14509;47.992;7.848;2022-12-18T00:00:17;14.90;;;9.20;;
2438;SDS011;14509;47.992;7.848;2022-12-18T00:02:19;15.18;;;9.85;;
2438;SDS011;14509;47.992;7.848;2022-12-18T00:04:23;14.07;;;9.30;;
2438;SDS011;14509;47.992;7.848;2022-12-18T00:06:28;30.75;;;11.82;;
2438;SDS011;14509;47.992;7.848;2022-12-18T00:08:31;18.08;;;10.15;;
2438;SDS011;14509;47.992;7.848;2022-12-18T00:12:35;27.08;;;13.65;;
2438;SDS011;14509;47.992;7.848;2022-12-18T00:14:37;22.80;;;11.88;;
2438;SDS011;14509;47.992;7.848;2022-12-18T00:16:39;19.52;;;9.95;;
2438;SDS011;14509;47.992;7.848;2022-12-18T00:18:44;25.60;;;14.88;;
2438;SDS011;14509;47.992;7.848;2022-12-18T00:20:47;24.08;;;15.43;;
2438;SDS011;14509;47.992;7.848;2022-12-18T00:22:49;27.30;;;16.58;;
2438;SDS011;14509;47.992;7.848;2022-12-18T00:24:51;30.27;;;16.77;;
2438;SDS011;14509;47.992;7.848;2022-12-18T00:26:53;27.55;;;17.10;;
2438;SDS011;14509;47.992;7.848;2022-12-18T00:28:55;28.17;;;17.73;;
2438;SDS011;14509;47.992;7.848;2022-12-18T00:30:59;25.38;;;17.10;;
2438;SDS011;14509;47.992;7.848;2022-12-18T00:33:02;30.08;;;16.42;;
2438;SDS011;14509;47.992;7.848;2022-12-18T00:35:04;26.92;;;17.83;;
2438;SDS011;14509;47.992;7.848;2022-12-18T00:37:08;21.88;;;15.60;;
2438;SDS011;14509;47.992;7.848;2022-12-18T00:39:10;23.30;;;15.85;;
2438;SDS011;14509;47.992;7.848;2022-12-18T00:41:13;25.20;;;16.00;;
2438;SDS011;14509;47.992;7.848;2022-12-18T00:43:38;26.08;;;15.30;;
2438;SDS011;14509;47.992;7.848;2022-12-18T00:45:39;23.90;;;15.13;;
2438;SDS011;14509;47.992;7.848;2022-12-18T00:47:41;21.87;;;14.20;;
2438;SDS011;14509;47.992;7.848;2022-12-18T00:49:43;24.27;;;16.05;;
2438;SDS011;14509;47.992;7.848;2022-12-18T00:51:45;23.15;;;15.20;;
2438;SDS011;14509;47.992;7.848;2022-12-18T00:53:48;24.95;;;15.10;;
2438;SDS011;14509;47.992;7.848;2022-12-18T00:55:50;20.10;;;15.10;;
2438;SDS011;14509;47.992;7.848;2022-12-18T00:57:52;29.10;;;15.88;;
2438;SDS011;14509;47.992;7.848;2022-12-18T00:59:54;24.10;;;15.05;;
2438;SDS011;14509;47.992;7.848;2022-12-18T01:01:56;24.10;;;15.25;;
2438;SDS011;14509;47.992;7.848;2022-12-18T01:03:58;26.77;;;15.63;;
2438;SDS011;14509;47.992;7.848;2022-12-18T01:06:04;22.83;;;14.52;;
2438;SDS011;14509;47.992;7.848;2022-12-18T01:08:07;21.88;;;15.18;;
2438;SDS011;14509;47.992;7.848;2022-12-18T01:10:11;25.90;;;17.50;;
2438;SDS011;14509;47.992;7.848;2022-12-18T01:12:14;24.17;;;15.10;;
2438;SDS011;14509;47.992;7.848;2022-12-18T01:14:15;24.80;;;16.25;;
2438;SDS011;14509;47.992;7.848;2022-12-18T01:16:17;24.65;;;16.52;;
2438;SDS011;14509;47.992;7.848;2022-12-18T01:18:19;21.42;;;15.07;;
2438;SDS011;14509;47.992;7.848;2022-12-18T01:20:21;20.95;;;14.80;;
2438;SDS011;14509;47.992;7.848;2022-12-18T01:22:23;24.77;;;15.63;;
2438;SDS011;14509;47.992;7.848;2022-12-18T01:24:25;20.52;;;15.13;;
2438;SDS011;14509;47.992;7.848;2022-12-18T01:26:29;23.25;;;15.90;;
2438;SDS011;14509;47.992;7.848;2022-12-18T01:28:31;23.30;;;15.10;;
2438;SDS011;14509;47.992;7.848;2022-12-18T01:30:32;24.52;;;16.42;;
2438;SDS011;14509;47.992;7.848;2022-12-18T01:32:35;22.98;;;16.02;;
2438;SDS011;14509;47.992;7.848;2022-12-18T01:34:37;24.92;;;15.90;;
2438;SDS011;14509;47.992;7.848;2022-12-18T01:36:39;26.03;;;16.07;;
2438;SDS011;14509;47.992;7.848;2022-12-18T01:38:41;25.35;;;16.02;;
2438;SDS011;14509;47.992;7.848;2022-12-18T01:40:43;24.23;;;16.13;;
2438;SDS011;14509;47.992;7.848;2022-12-18T01:42:47;24.85;;;15.63;;
2438;SDS011;14509;47.992;7.848;2022-12-18T01:44:56;22.52;;;15.60;;
2438;SDS011;14509;47.992;7.848;2022-12-18T01:47:03;27.95;;;16.15;;
2438;SDS011;14509;47.992;7.848;2022-12-18T01:49:05;20.13;;;14.50;;
2438;SDS011;14509;47.992;7.848;2022-12-18T01:51:09;25.48;;;16.73;;
2438;SDS011;14509;47.992;7.848;2022-12-18T01:53:13;25.88;;;16.23;;
2438;SDS011;14509;47.992;7.848;2022-12-18T01:55:18;23.75;;;15.40;;
2438;SDS011;14509;47.992;7.848;2022-12-18T01:57:23;24.60;;;14.95;;
2438;SDS011;14509;47.992;7.848;2022-12-18T01:59:27;24.65;;;14.90;;
2438;SDS011;14509;47.992;7.848;2022-12-18T02:01:30;22.45;;;15.50;;
2438;SDS011;14509;47.992;7.848;2022-12-18T02:03:35;21.90;;;14.68;;
2438;SDS011;14509;47.992;7.848;2022-12-18T02:05:40;22.85;;;16.10;;
2438;SDS011;14509;47.992;7.848;2022-12-18T02:07:53;25.70;;;16.77;;
2438;SDS011;14509;47.992;7.848;2022-12-18T02:10:05;25.42;;;16.17;;
2438;SDS011;14509;47.992;7.848;2022-12-18T02:12:16;23.45;;;15.50;;
2438;SDS011;14509;47.992;7.848;2022-12-18T02:14:22;25.35;;;16.60;;
2438;SDS011;14509;47.992;7.848;2022-12-18T02:16:35;21.98;;;15.77;;
2438;SDS011;14509;47.992;7.848;2022-12-18T02:18:44;23.67;;;15.85;;
2438;SDS011;14509;47.992;7.848;2022-12-18T02:20:52;24.63;;;15.93;;
2438;SDS011;14509;47.992;7.848;2022-12-18T02:23:04;22.80;;;14.85;;
2438;SDS011;14509;47.992;7.848;2022-12-18T02:25:15;24.85;;;14.70;;
2438;SDS011;14509;47.992;7.848;2022-12-18T02:27:30;19.60;;;14.52;;
2438;SDS011;14509;47.992;7.848;2022-12-18T02:29:37;26.80;;;15.13;;
2438;SDS011;14509;47.992;7.848;2022-12-18T02:31:43;23.52;;;16.08;;
2438;SDS011;14509;47.992;7.848;2022-12-18T02:33:51;23.10;;;16.90;;
2438;SDS011;14509;47.992;7.848;2022-12-18T02:35:56;22.63;;;15.80;;
2438;SDS011;14509;47.992;7.848;2022-12-18T02:38:01;24.67;;;14.80;;
2438;SDS011;14509;47.992;7.848;2022-12-18T02:40:08;24.33;;;15.77;;
2438;SDS011;14509;47.992;7.848;2022-12-18T02:42:12;24.73;;;15.30;;
2438;SDS011;14509;47.992;7.848;2022-12-18T02:44:16;25.17;;;14.90;;
2438;SDS011;14509;47.992;7.848;2022-12-18T02:46:28;24.85;;;15.85;;
2438;SDS011;14509;47.992;7.848;2022-12-18T02:48:37;27.60;;;17.23;;
2438;SDS011;14509;47.992;7.848;2022-12-18T02:50:41;23.58;;;16.50;;
2438;SDS011;14509;47.992;7.848;2022-12-18T02:52:49;26.20;;;16.13;;
2438;SDS011;14509;47.992;7.848;2022-12-18T02:55:06;23.30;;;16.30;;
2438;SDS011;14509;47.992;7.848;2022-12-18T02:57:24;27.48;;;15.40;;
2438;SDS011;14509;47.992;7.848;2022-12-18T02:59:38;26.10;;;16.23;;
2438;SDS011;14509;47.992;7.848;2022-12-18T03:01:48;29.35;;;17.23;;
2438;SDS011;14509;47.992;7.848;2022-12-18T03:03:57;24.70;;;16.20;;
2438;SDS011;14509;47.992;7.848;2022-12-18T03:06:04;30.48;;;17.08;;
2438;SDS011;14509;47.992;7.848;2022-12-18T03:08:12;24.52;;;17.02;;
2438;SDS011;14509;47.992;7.848;2022-12-18T03:10:21;23.27;;;16.38;;
2438;SDS011;14509;47.992;7.848;2022-12-18T03:12:28;29.08;;;16.95;;
2438;SDS011;14509;47.992;7.848;2022-12-18T03:14:32;22.43;;;14.90;;
2438;SDS011;14509;47.992;7.848;2022-12-18T03:16:39;27.40;;;14.95;;
2438;SDS011;14509;47.992;7.848;2022-12-18T03:18:45;26.70;;;16.63;;
2438;SDS011;14509;47.992;7.848;2022-12-18T03:20:50;29.17;;;17.50;;
2438;SDS011;14509;47.992;7.848;2022-12-18T03:22:57;27.83;;;15.55;;
2438;SDS011;14509;47.992;7.848;2022-12-18T03:25:06;30.77;;;17.23;;
2438;SDS011;14509;47.992;7.848;2022-12-18T03:27:13;27.30;;;16.03;;
2438;SDS011;14509;47.992;7.848;2022-12-18T03:29:20;26.00;;;16.50;;
2438;SDS011;14509;47.992;7.848;2022-12-18T03:31:26;26.63;;;16.88;;
2438;SDS011;14509;47.992;7.848;2022-12-18T03:33:34;24.23;;;16.50;;
2438;SDS011;14509;47.992;7.848;2022-12-18T03:35:41;25.50;;;15.90;;
2438;SDS011;14509;47.992;7.848;2022-12-18T03:37:46;26.20;;;15.93;;
2438;SDS011;14509;47.992;7.848;2022-12-18T03:39:48;27.27;;;15.93;;
2438;SDS011;14509;47.992;7.848;2022-12-18T03:41:51;28.60;;;16.90;;
2438;SDS011;14509;47.992;7.848;2022-12-18T03:44:19;25.77;;;16.42;;
2438;SDS011;14509;47.992;7.848;2022-12-18T03:46:30;26.60;;;17.13;;
2438;SDS011;14509;47.992;7.848;2022-12-18T03:48:43;25.17;;;15.50;;
2438;SDS011;14509;47.992;7.848;2022-12-18T03:50:53;26.50;;;16.08;;
2438;SDS011;14509;47.992;7.848;2022-12-18T03:53:00;23.37;;;15.70;;
2438;SDS011;14509;47.992;7.848;2022-12-18T03:55:13;24.85;;;14.65;;
2438;SDS011;14509;47.992;7.848;2022-12-18T03:57:18;23.80;;;16.27;;
2438;SDS011;14509;47.992;7.848;2022-12-18T03:59:25;23.17;;;14.90;;
2438;SDS011;14509;47.992;7.848;2022-12-18T04:01:30;26.10;;;15.57;;
2438;SDS011;14509;47.992;7.848;2022-12-18T04:03:35;23.88;;;15.52;;
2438;SDS011;14509;47.992;7.848;2022-12-18T04:05:42;22.25;;;14.10;;
2438;SDS011;14509;47.992;7.848;2022-12-18T04:07:47;23.63;;;14.68;;
2438;SDS011;14509;47.992;7.848;2022-12-18T04:09:51;19.88;;;13.73;;
2438;SDS011;14509;47.992;7.848;2022-12-18T04:11:57;25.48;;;14.90;;
2438;SDS011;14509;47.992;7.848;2022-12-18T04:13:59;19.98;;;13.85;;
2438;SDS011;14509;47.992;7.848;2022-12-18T04:16:01;21.10;;;15.63;;
2438;SDS011;14509;47.992;7.848;2022-12-18T04:18:04;21.08;;;14.50;;
2438;SDS011;14509;47.992;7.848;2022-12-18T04:20:15;21.15;;;13.90;;
2438;SDS011;14509;47.992;7.848;2022-12-18T04:22:20;23.92;;;14.80;;
2438;SDS011;14509;47.992;7.848;2022-12-18T04:24:27;22.20;;;14.50;;
2438;SDS011;14509;47.992;7.848;2022-12-18T04:26:42;19.55;;;15.05;;
2438;SDS011;14509;47.992;7.848;2022-12-18T04:28:48;21.35;;;14.70;;
2438;SDS011;14509;47.992;7.848;2022-12-18T04:30:50;19.98;;;13.20;;
2438;SDS011;14509;47.992;7.848;2022-12-18T04:32:55;19.77;;;14.27;;
2438;SDS011;14509;47.992;7.848;2022-12-18T04:34:57;19.27;;;13.75;;
2438;SDS011;14509;47.992;7.848;2022-12-18T04:36:59;23.33;;;14.82;;
2438;SDS011;14509;47.992;7.848;2022-12-18T04:39:02;26.45;;;15.00;;
2438;SDS011;14509;47.992;7.848;2022-12-18T04:41:05;21.55;;;13.13;;
2438;SDS011;14509;47.992;7.848;2022-12-18T04:43:07;21.65;;;14.50;;
2438;SDS011;14509;47.992;7.848;2022-12-18T04:45:09;21.15;;;13.52;;
2438;SDS011;14509;47.992;7.848;2022-12-18T04:47:11;22.50;;;14.93;;
2438;SDS011;14509;47.992;7.848;2022-12-18T04:49:13;20.90;;;13.27;;
2438;SDS011;14509;47.992;7.848;2022-12-18T04:51:15;20.58;;;13.63;;
2438;SDS011;14509;47.992;7.848;2022-12-18T04:53:17;20.88;;;12.60;;
2438;SDS011;14509;47.992;7.848;2022-12-18T04:55:21;21.48;;;13.82;;
2438;SDS011;14509;47.992;7.848;2022-12-18T04:57:26;20.77;;;12.60;;
2438;SDS011;14509;47.992;7.848;2022-12-18T04:59:28;17.27;;;12.55;;
2438;SDS011;14509;47.992;7.848;2022-12-18T05:01:30;20.15;;;13.10;;
2438;SDS011;14509;47.992;7.848;2022-12-18T05:03:32;17.75;;;12.80;;
2438;SDS011;14509;47.992;7.848;2022-12-18T05:05:35;15.90;;;12.03;;
2438;SDS011;14509;47.992;7.848;2022-12-18T05:07:37;16.17;;;11.25;;
2438;SDS011;14509;47.992;7.848;2022-12-18T05:09:39;21.48;;;13.27;;
2438;SDS011;14509;47.992;7.848;2022-12-18T05:11:42;18.75;;;13.05;;
2438;SDS011;14509;47.992;7.848;2022-12-18T05:13:44;18.97;;;12.83;;
2438;SDS011;14509;47.992;7.848;2022-12-18T05:15:50;18.70;;;12.45;;
2438;SDS011;14509;47.992;7.848;2022-12-18T05:17:53;18.53;;;11.53;;
2438;SDS011;14509;47.992;7.848;2022-12-18T05:19:55;17.42;;;11.75;;
2438;SDS011;14509;47.992;7.848;2022-12-18T05:21:57;16.15;;;11.48;;
2438;SDS011;14509;47.992;7.848;2022-12-18T05:23:59;18.20;;;11.05;;
2438;SDS011;14509;47.992;7.848;2022-12-18T05:26:01;19.42;;;12.68;;
2438;SDS011;14509;47.992;7.848;2022-12-18T05:28:06;16.55;;;10.60;;
2438;SDS011;14509;47.992;7.848;2022-12-18T05:30:08;19.63;;;12.52;;
2438;SDS011;14509;47.992;7.848;2022-12-18T05:32:11;14.90;;;11.48;;
2438;SDS011;14509;47.992;7.848;2022-12-18T05:34:13;18.23;;;11.80;;
2438;SDS011;14509;47.992;7.848;2022-12-18T05:36:15;16.77;;;11.27;;
2438;SDS011;14509;47.992;7.848;2022-12-18T05:38:17;15.80;;;10.97;;
2438;SDS011;14509;47.992;7.848;2022-12-18T05:40:19;16.98;;;10.93;;
2438;SDS011;14509;47.992;7.848;2022-12-18T05:42:20;20.63;;;11.10;;
2438;SDS011;14509;47.992;7.848;2022-12-18T05:44:24;16.60;;;10.95;;
2438;SDS011;14509;47.992;7.848;2022-12-18T05:46:26;18.30;;;10.82;;
2438;SDS011;14509;47.992;7.848;2022-12-18T05:48:28;15.02;;;10.98;;
2438;SDS011;14509;47.992;7.848;2022-12-18T05:50:30;18.80;;;11.57;;
2438;SDS011;14509;47.992;7.848;2022-12-18T05:52:35;18.13;;;10.95;;
2438;SDS011;14509;47.992;7.848;2022-12-18T05:54:37;16.75;;;12.25;;
2438;SDS011;14509;47.992;7.848;2022-12-18T05:56:39;14.63;;;11.63;;
2438;SDS011;14509;47.992;7.848;2022-12-18T05:58:41;15.68;;;11.55;;
2438;SDS011;14509;47.992;7.848;2022-12-18T06:00:45;16.90;;;10.60;;
2438;SDS011;14509;47.992;7.848;2022-12-18T06:02:47;12.68;;;8.57;;
2438;SDS011;14509;47.992;7.848;2022-12-18T06:04:49;14.30;;;10.02;;
2438;SDS011;14509;47.992;7.848;2022-12-18T06:06:51;14.90;;;10.82;;
2438;SDS011;14509;47.992;7.848;2022-12-18T06:08:53;13.82;;;10.40;;
2438;SDS011;14509;47.992;7.848;2022-12-18T06:10:56;14.73;;;10.25;;
2438;SDS011;14509;47.992;7.848;2022-12-18T06:12:58;15.23;;;10.90;;
2438;SDS011;14509;47.992;7.848;2022-12-18T06:15:00;16.00;;;10.38;;
2438;SDS011;14509;47.992;7.848;2022-12-18T06:17:04;13.85;;;9.82;;
2438;SDS011;14509;47.992;7.848;2022-12-18T06:19:07;16.30;;;10.20;;
2438;SDS011;14509;47.992;7.848;2022-12-18T06:21:14;20.15;;;11.13;;
2438;SDS011;14509;47.992;7.848;2022-12-18T06:23:16;18.80;;;10.82;;
2438;SDS011;14509;47.992;7.848;2022-12-18T06:25:18;17.75;;;10.38;;
2438;SDS011;14509;47.992;7.848;2022-12-18T06:27:20;14.18;;;10.00;;
2438;SDS011;14509;47.992;7.848;2022-12-18T06:29:22;14.13;;;9.60;;
2438;SDS011;14509;47.992;7.848;2022-12-18T06:31:24;15.63;;;9.40;;
2438;SDS011;14509;47.992;7.848;2022-12-18T06:33:28;15.05;;;9.85;;
2438;SDS011;14509;47.992;7.848;2022-12-18T06:35:31;14.57;;;9.60;;
2438;SDS011;14509;47.992;7.848;2022-12-18T06:37:33;16.07;;;10.80;;
2438;SDS011;14509;47.992;7.848;2022-12-18T06:39:35;16.10;;;9.95;;
2438;SDS011;14509;47.992;7.848;2022-12-18T06:41:37;15.50;;;10.88;;
2438;SDS011;14509;47.992;7.848;2022-12-18T06:43:39;15.63;;;9.40;;
2438;SDS011;14509;47.992;7.848;2022-12-18T06:45:41;15.38;;;11.20;;
2438;SDS011;14509;47.992;7.848;2022-12-18T06:47:43;15.23;;;10.15;;
2438;SDS011;14509;47.992;7.848;2022-12-18T06:49:46;17.65;;;11.70;;
2438;SDS011;14509;47.992;7.848;2022-12-18T06:51:48;17.33;;;11.47;;
2438;SDS011;14509;47.992;7.848;2022-12-18T06:53:50;20.00;;;11.32;;
2438;SDS011;14509;47.992;7.848;2022-12-18T06:55:52;17.55;;;11.35;;
2438;SDS011;14509;47.992;7.848;2022-12-18T06:57:54;18.27;;;12.10;;
2438;SDS011;14509;47.992;7.848;2022-12-18T06:59:56;18.48;;;10.75;;
2438;SDS011;14509;47.992;7.848;2022-12-18T07:01:58;13.65;;;10.27;;
2438;SDS011;14509;47.992;7.848;2022-12-18T07:04:00;14.82;;;10.98;;
2438;SDS011;14509;47.992;7.848;2022-12-18T07:06:03;16.13;;;10.02;;
2438;SDS011;14509;47.992;7.848;2022-12-18T07:08:06;20.58;;;11.30;;
2438;SDS011;14509;47.992;7.848;2022-12-18T07:10:08;15.52;;;11.05;;
2438;SDS011;14509;47.992;7.848;2022-12-18T07:12:10;14.77;;;10.45;;
2438;SDS011;14509;47.992;7.848;2022-12-18T07:14:12;15.50;;;9.83;;
2438;SDS011;14509;47.992;7.848;2022-12-18T07:16:15;15.05;;;9.80;;
2438;SDS011;14509;47.992;7.848;2022-12-18T07:18:18;13.10;;;8.98;;
2438;SDS011;14509;47.992;7.848;2022-12-18T07:20:20;12.88;;;8.90;;
2438;SDS011;14509;47.992;7.848;2022-12-18T07:22:23;10.52;;;8.63;;
2438;SDS011;14509;47.992;7.848;2022-12-18T07:24:26;13.40;;;9.02;;
2438;SDS011;14509;47.992;7.848;2022-12-18T07:26:28;13.18;;;8.45;;
2438;SDS011;14509;47.992;7.848;2022-12-18T07:28:30;15.52;;;9.10;;
2438;SDS011;14509;47.992;7.848;2022-12-18T07:30:32;12.38;;;8.50;;
2438;SDS011;14509;47.992;7.848;2022-12-18T07:32:34;9.27;;;8.18;;
2438;SDS011;14509;47.992;7.848;2022-12-18T07:34:36;24.10;;;13.82;;
2438;SDS011;14509;47.992;7.848;2022-12-18T07:36:38;12.20;;;8.90;;
2438;SDS011;14509;47.992;7.848;2022-12-18T07:38:41;11.27;;;8.70;;
2438;SDS011;14509;47.992;7.848;2022-12-18T07:40:43;14.60;;;9.93;;
2438;SDS011;14509;47.992;7.848;2022-12-18T07:42:45;13.45;;;10.30;;
2438;SDS011;14509;47.992;7.848;2022-12-18T07:44:47;15.13;;;11.05;;
2438;SDS011;14509;47.992;7.848;2022-12-18T07:46:49;16.17;;;10.18;;
2438;SDS011;14509;47.992;7.848;2022-12-18T07:48:51;12.80;;;10.10;;
2438;SDS011;14509;47.992;7.848;2022-12-18T07:50:53;17.88;;;12.23;;
2438;SDS011;14509;47.992;7.848;2022-12-18T07:52:59;15.60;;;10.55;;
2438;SDS011;14509;47.992;7.848;2022-12-18T07:55:05;17.75;;;12.23;;
2438;SDS011;14509;47.992;7.848;2022-12-18T07:57:07;17.55;;;12.00;;
2438;SDS011;14509;47.992;7.848;2022-12-18T07:59:10;18.10;;;11.65;;
2438;SDS011;14509;47.992;7.848;2022-12-18T08:01:12;17.92;;;11.68;;
2438;SDS011;14509;47.992;7.848;2022-12-18T08:03:14;17.90;;;12.57;;
2438;SDS011;14509;47.992;7.848;2022-12-18T08:05:16;18.30;;;11.88;;
2438;SDS011;14509;47.992;7.848;2022-12-18T08:07:18;20.00;;;12.23;;
2438;SDS011;14509;47.992;7.848;2022-12-18T08:09:20;17.40;;;12.00;;
2438;SDS011;14509;47.992;7.848;2022-12-18T08:11:24;22.02;;;12.77;;
2438;SDS011;14509;47.992;7.848;2022-12-18T08:13:27;19.42;;;11.70;;
2438;SDS011;14509;47.992;7.848;2022-12-18T08:15:29;17.35;;;12.07;;
2438;SDS011;14509;47.992;7.848;2022-12-18T08:17:31;18.60;;;11.73;;
2438;SDS011;14509;47.992;7.848;2022-12-18T08:19:33;19.02;;;12.48;;
2438;SDS011;14509;47.992;7.848;2022-12-18T08:21:35;16.65;;;12.73;;
2438;SDS011;14509;47.992;7.848;2022-12-18T08:23:38;24.00;;;13.82;;
2438;SDS011;14509;47.992;7.848;2022-12-18T08:25:40;22.13;;;16.05;;
2438;SDS011;14509;47.992;7.848;2022-12-18T08:27:44;19.58;;;13.00;;
2438;SDS011;14509;47.992;7.848;2022-12-18T08:29:46;19.20;;;13.52;;
2438;SDS011;14509;47.992;7.848;2022-12-18T08:31:47;17.50;;;13.15;;
2438;SDS011;14509;47.992;7.848;2022-12-18T08:33:50;20.25;;;13.02;;
2438;SDS011;14509;47.992;7.848;2022-12-18T08:35:52;15.75;;;11.80;;
2438;SDS011;14509;47.992;7.848;2022-12-18T08:37:54;18.67;;;11.68;;
2438;SDS011;14509;47.992;7.848;2022-12-18T08:39:56;17.40;;;10.82;;
2438;SDS011;14509;47.992;7.848;2022-12-18T08:41:58;14.43;;;11.00;;
2438;SDS011;14509;47.992;7.848;2022-12-18T08:44:19;19.50;;;11.98;;
2438;SDS011;14509;47.992;7.848;2022-12-18T08:46:40;17.60;;;11.85;;
2438;SDS011;14509;47.992;7.848;2022-12-18T08:48:45;17.10;;;12.35;;
2438;SDS011;14509;47.992;7.848;2022-12-18T08:50:53;16.58;;;12.27;;
2438;SDS011;14509;47.992;7.848;2022-12-18T08:52:55;17.30;;;12.82;;
2438;SDS011;14509;47.992;7.848;2022-12-18T08:54:57;19.42;;;12.93;;
2438;SDS011;14509;47.992;7.848;2022-12-18T08:56:59;18.53;;;12.20;;
2438;SDS011;14509;47.992;7.848;2022-12-18T08:59:01;18.02;;;12.27;;
2438;SDS011;14509;47.992;7.848;2022-12-18T09:01:07;19.38;;;13.60;;
2438;SDS011;14509;47.992;7.848;2022-12-18T09:03:11;17.40;;;12.40;;
2438;SDS011;14509;47.992;7.848;2022-12-18T09:05:14;19.55;;;12.70;;
2438;SDS011;14509;47.992;7.848;2022-12-18T09:07:16;20.83;;;13.45;;
2438;SDS011;14509;47.992;7.848;2022-12-18T09:09:18;19.80;;;12.45;;
2438;SDS011;14509;47.992;7.848;2022-12-18T09:11:21;20.45;;;13.65;;
2438;SDS011;14509;47.992;7.848;2022-12-18T09:13:24;24.45;;;15.70;;
2438;SDS011;14509;47.992;7.848;2022-12-18T09:15:26;20.15;;;14.75;;
2438;SDS011;14509;47.992;7.848;2022-12-18T09:17:30;20.73;;;14.02;;
2438;SDS011;14509;47.992;7.848;2022-12-18T09:19:32;20.52;;;13.63;;
2438;SDS011;14509;47.992;7.848;2022-12-18T09:21:34;20.25;;;13.88;;
2438;SDS011;14509;47.992;7.848;2022-12-18T09:23:37;19.23;;;14.45;;
2438;SDS011;14509;47.992;7.848;2022-12-18T09:25:39;21.35;;;13.68;;
2438;SDS011;14509;47.992;7.848;2022-12-18T09:27:41;24.73;;;15.90;;
2438;SDS011;14509;47.992;7.848;2022-12-18T09:29:43;21.83;;;14.50;;
2438;SDS011;14509;47.992;7.848;2022-12-18T09:31:45;23.67;;;14.25;;
2438;SDS011;14509;47.992;7.848;2022-12-18T09:36:00;28.83;;;16.00;;
2438;SDS011;14509;47.992;7.848;2022-12-18T09:38:03;25.90;;;16.17;;
2438;SDS011;14509;47.992;7.848;2022-12-18T09:40:05;25.80;;;17.00;;
2438;SDS011;14509;47.992;7.848;2022-12-18T09:42:16;24.05;;;16.45;;
2438;SDS011;14509;47.992;7.848;2022-12-18T09:44:25;29.10;;;17.02;;
2438;SDS011;14509;47.992;7.848;2022-12-18T09:46:30;23.83;;;14.93;;
2438;SDS011;14509;47.992;7.848;2022-12-18T09:48:35;26.30;;;17.05;;
2438;SDS011;14509;47.992;7.848;2022-12-18T09:50:40;27.38;;;16.92;;
2438;SDS011;14509;47.992;7.848;2022-12-18T09:52:45;27.25;;;16.92;;
2438;SDS011;14509;47.992;7.848;2022-12-18T09:54:53;28.35;;;16.65;;
2438;SDS011;14509;47.992;7.848;2022-12-18T09:57:01;30.25;;;17.92;;
2438;SDS011;14509;47.992;7.848;2022-12-18T09:59:04;27.23;;;17.38;;
2438;SDS011;14509;47.992;7.848;2022-12-18T10:01:09;24.55;;;16.00;;
2438;SDS011;14509;47.992;7.848;2022-12-18T10:03:12;25.75;;;17.25;;
2438;SDS011;14509;47.992;7.848;2022-12-18T10:05:15;26.92;;;16.92;;
2438;SDS011;14509;47.992;7.848;2022-12-18T10:07:22;31.25;;;17.33;;
2438;SDS011;14509;47.992;7.848;2022-12-18T10:09:32;26.02;;;18.10;;
2438;SDS011;14509;47.992;7.848;2022-12-18T10:11:40;29.00;;;18.85;;
2438;SDS011;14509;47.992;7.848;2022-12-18T10:13:51;33.53;;;21.23;;
2438;SDS011;14509;47.992;7.848;2022-12-18T10:16:01;23.73;;;17.10;;
2438;SDS011;14509;47.992;7.848;2022-12-18T10:18:16;24.50;;;16.75;;
2438;SDS011;14509;47.992;7.848;2022-12-18T10:20:27;29.73;;;18.40;;
2438;SDS011;14509;47.992;7.848;2022-12-18T10:22:39;26.67;;;19.00;;
2438;SDS011;14509;47.992;7.848;2022-12-18T10:24:55;27.23;;;17.63;;
2438;SDS011;14509;47.992;7.848;2022-12-18T10:27:09;27.10;;;17.75;;
2438;SDS011;14509;47.992;7.848;2022-12-18T10:29:15;29.05;;;18.40;;
2438;SDS011;14509;47.992;7.848;2022-12-18T10:31:18;28.30;;;18.17;;
2438;SDS011;14509;47.992;7.848;2022-12-18T10:33:23;23.85;;;16.45;;
2438;SDS011;14509;47.992;7.848;2022-12-18T10:35:26;22.70;;;14.88;;
2438;SDS011;14509;47.992;7.848;2022-12-18T10:37:29;19.27;;;14.35;;
2438;SDS011;14509;47.992;7.848;2022-12-18T10:39:32;23.35;;;13.70;;
2438;SDS011;14509;47.992;7.848;2022-12-18T10:41:36;20.38;;;14.52;;
2438;SDS011;14509;47.992;7.848;2022-12-18T10:43:38;18.00;;;13.80;;
2438;SDS011;14509;47.992;7.848;2022-12-18T10:45:41;24.42;;;15.07;;
2438;SDS011;14509;47.992;7.848;2022-12-18T10:47:58;21.58;;;15.82;;
2438;SDS011;14509;47.992;7.848;2022-12-18T10:50:00;25.85;;;17.60;;
2438;SDS011;14509;47.992;7.848;2022-12-18T10:52:07;27.55;;;18.38;;
2438;SDS011;14509;47.992;7.848;2022-12-18T10:54:17;29.48;;;19.00;;
2438;SDS011;14509;47.992;7.848;2022-12-18T10:56:20;27.42;;;20.02;;
2438;SDS011;14509;47.992;7.848;2022-12-18T10:58:25;28.95;;;18.67;;
2438;SDS011;14509;47.992;7.848;2022-12-18T11:00:29;31.52;;;19.20;;
2438;SDS011;14509;47.992;7.848;2022-12-18T11:02:33;27.58;;;18.60;;
2438;SDS011;14509;47.992;7.848;2022-12-18T11:04:36;28.33;;;17.50;;
2438;SDS011;14509;47.992;7.848;2022-12-18T11:06:53;30.20;;;19.75;;
2438;SDS011;14509;47.992;7.848;2022-12-18T11:08:57;18.58;;;13.35;;
2438;SDS011;14509;47.992;7.848;2022-12-18T11:11:01;21.65;;;11.73;;
2438;SDS011;14509;47.992;7.848;2022-12-18T11:13:09;29.70;;;12.00;;
2438;SDS011;14509;47.992;7.848;2022-12-18T11:15:19;17.95;;;11.75;;
2438;SDS011;14509;47.992;7.848;2022-12-18T11:17:25;24.83;;;12.95;;
2438;SDS011;14509;47.992;7.848;2022-12-18T11:19:32;18.23;;;11.02;;
2438;SDS011;14509;47.992;7.848;2022-12-18T11:21:39;17.13;;;11.00;;
2438;SDS011;14509;47.992;7.848;2022-12-18T11:23:45;22.88;;;11.25;;
2438;SDS011;14509;47.992;7.848;2022-12-18T11:25:53;19.13;;;11.75;;
2438;SDS011;14509;47.992;7.848;2022-12-18T11:27:58;21.27;;;13.45;;
2438;SDS011;14509;47.992;7.848;2022-12-18T11:30:08;20.88;;;11.45;;
2438;SDS011;14509;47.992;7.848;2022-12-18T11:32:22;15.93;;;10.35;;
2438;SDS011;14509;47.992;7.848;2022-12-18T11:34:31;22.52;;;11.43;;
2438;SDS011;14509;47.992;7.848;2022-12-18T11:36:34;16.35;;;12.10;;
2438;SDS011;14509;47.992;7.848;2022-12-18T11:38:40;19.40;;;11.32;;
2438;SDS011;14509;47.992;7.848;2022-12-18T11:40:45;19.40;;;13.15;;
2438;SDS011;14509;47.992;7.848;2022-12-18T11:42:54;15.65;;;11.40;;
2438;SDS011;14509;47.992;7.848;2022-12-18T11:45:04;23.90;;;16.85;;
2438;SDS011;14509;47.992;7.848;2022-12-18T11:47:25;26.58;;;18.40;;
2438;SDS011;14509;47.992;7.848;2022-12-18T11:49:33;32.40;;;18.23;;
2438;SDS011;14509;47.992;7.848;2022-12-18T11:51:37;27.52;;;18.25;;
2438;SDS011;14509;47.992;7.848;2022-12-18T11:53:45;28.80;;;18.77;;
2438;SDS011;14509;47.992;7.848;2022-12-18T11:55:49;28.67;;;19.77;;
2438;SDS011;14509;47.992;7.848;2022-12-18T11:58:03;20.90;;;13.32;;
2438;SDS011;14509;47.992;7.848;2022-12-18T12:00:13;30.63;;;19.40;;
2438;SDS011;14509;47.992;7.848;2022-12-18T12:02:22;18.60;;;14.02;;
2438;SDS011;14509;47.992;7.848;2022-12-18T12:04:48;28.98;;;19.10;;
2438;SDS011;14509;47.992;7.848;2022-12-18T12:07:02;19.25;;;12.10;;
2438;SDS011;14509;47.992;7.848;2022-12-18T12:09:16;19.77;;;13.30;;
2438;SDS011;14509;47.992;7.848;2022-12-18T12:11:25;25.02;;;12.73;;
2438;SDS011;14509;47.992;7.848;2022-12-18T12:13:38;16.63;;;12.25;;
2438;SDS011;14509;47.992;7.848;2022-12-18T12:15:50;21.05;;;13.13;;
2438;SDS011;14509;47.992;7.848;2022-12-18T12:18:01;22.27;;;12.00;;
2438;SDS011;14509;47.992;7.848;2022-12-18T12:20:10;18.42;;;11.05;;
2438;SDS011;14509;47.992;7.848;2022-12-18T12:22:23;20.17;;;12.38;;
2438;SDS011;14509;47.992;7.848;2022-12-18T12:24:36;26.15;;;13.05;;
2438;SDS011;14509;47.992;7.848;2022-12-18T12:26:50;24.75;;;12.38;;